sensor_id;sensor_type;location;lat;lon;timestamp;temperature;humidity
11577;DHT22;5844;51.496;6.788;2023-03-01T00:01:13;-0.70;1.00
11577;DHT22;5844;51.496;6.788;2023-03-01T00:03:39;0.30;1.00
11577;DHT22;5844;51.496;6.788;2023-03-01T00:06:05;-0.80;1.00
11577;DHT22;5844;51.496;6.788;2023-03-01T00:08:31;-0.80;1.00
11577;DHT22;5844;51.496;6.788;2023-03-01T00:11:07;-0.80;1.00
11577;DHT22;5844;51.496;6.788;2023-03-01T00:13:33;-0.90;1.00
11577;DHT22;5844;51.496;6.788;2023-03-01T00:15:59;-0.90;1.00
11577;DHT22;5844;51.496;6.788;2023-03-01T00:18:26;-0.90;1.00
11577;DHT22;5844;51.496;6.788;2023-03-01T00:20:53;-0.90;1.00
11577;DHT22;5844;51.496;6.788;2023-03-01T00:23:20;-1.00;1.00
11577;DHT22;5844;51.496;6.788;2023-03-01T00:25:46;-0.10;1.00
11577;DHT22;5844;51.496;6.788;2023-03-01T00:28:11;-1.00;1.00
11577;DHT22;5844;51.496;6.788;2023-03-01T00:30:37;-0.60;1.00
11577;DHT22;5844;51.496;6.788;2023-03-01T00:33:03;-1.00;1.00
11577;DHT22;5844;51.496;6.788;2023-03-01T00:35:29;-1.10;1.00
11577;DHT22;5844;51.496;6.788;2023-03-01T00:37:57;-1.10;1.00
11577;DHT22;5844;51.496;6.788;2023-03-01T00:40:27;-1.10;1.00
11577;DHT22;5844;51.496;6.788;2023-03-01T00:42:53;-1.10;1.00
11577;DHT22;5844;51.496;6.788;2023-03-01T00:45:18;-1.20;1.00
11577;DHT22;5844;51.496;6.788;2023-03-01T00:47:44;-1.20;1.00
11577;DHT22;5844;51.496;6.788;2023-03-01T00:50:10;-0.50;1.00
11577;DHT22;5844;51.496;6.788;2023-03-01T00:52:36;-1.20;1.00
11577;DHT22;5844;51.496;6.788;2023-03-01T00:55:03;-1.20;1.00
11577;DHT22;5844;51.496;6.788;2023-03-01T00:57:29;-1.30;1.00
11577;DHT22;5844;51.496;6.788;2023-03-01T00:59:54;-1.30;16.80
11577;DHT22;5844;51.496;6.788;2023-03-01T01:02:20;-1.30;96.50
11577;DHT22;5844;51.496;6.788;2023-03-01T01:04:46;-0.50;99.90
11577;DHT22;5844;51.496;6.788;2023-03-01T01:07:13;-1.40;99.90
11577;DHT22;5844;51.496;6.788;2023-03-01T01:09:39;-1.40;99.90
11577;DHT22;5844;51.496;6.788;2023-03-01T01:12:05;-1.40;99.90
11577;DHT22;5844;51.496;6.788;2023-03-01T01:14:31;-1.40;99.90
11577;DHT22;5844;51.496;6.788;2023-03-01T01:16:56;-1.50;99.90
11577;DHT22;5844;51.496;6.788;2023-03-01T01:19:23;-1.50;99.90
11577;DHT22;5844;51.496;6.788;2023-03-01T01:21:49;-0.70;99.90
11577;DHT22;5844;51.496;6.788;2023-03-01T01:24:15;-1.50;99.90
11577;DHT22;5844;51.496;6.788;2023-03-01T01:26:42;-1.50;99.90
11577;DHT22;5844;51.496;6.788;2023-03-01T01:29:09;-1.50;99.90
11577;DHT22;5844;51.496;6.788;2023-03-01T01:31:36;-1.60;99.90
11577;DHT22;5844;51.496;6.788;2023-03-01T01:34:04;-1.60;99.90
11577;DHT22;5844;51.496;6.788;2023-03-01T01:36:30;-1.60;99.90
11577;DHT22;5844;51.496;6.788;2023-03-01T01:38:56;-1.70;99.90
11577;DHT22;5844;51.496;6.788;2023-03-01T01:41:23;-1.70;99.90
11577;DHT22;5844;51.496;6.788;2023-03-01T01:44:10;-1.70;99.90
11577;DHT22;5844;51.496;6.788;2023-03-01T01:46:40;-1.70;99.90
11577;DHT22;5844;51.496;6.788;2023-03-01T01:49:38;-1.80;99.90
11577;DHT22;5844;51.496;6.788;2023-03-01T01:52:16;-1.80;99.90
11577;DHT22;5844;51.496;6.788;2023-03-01T01:55:10;-1.80;99.90
11577;DHT22;5844;51.496;6.788;2023-03-01T01:57:40;-1.90;99.90
11577;DHT22;5844;51.496;6.788;2023-03-01T02:00:16;-1.90;99.90
11577;DHT22;5844;51.496;6.788;2023-03-01T02:02:45;-1.90;99.90
11577;DHT22;5844;51.496;6.788;2023-03-01T02:05:26;-1.90;99.90
11577;DHT22;5844;51.496;6.788;2023-03-01T02:07:55;-1.90;99.90
11577;DHT22;5844;51.496;6.788;2023-03-01T02:10:23;-1.90;99.90
11577;DHT22;5844;51.496;6.788;2023-03-01T02:12:50;-1.90;99.90
11577;DHT22;5844;51.496;6.788;2023-03-01T02:15:16;-2.00;99.90
11577;DHT22;5844;51.496;6.788;2023-03-01T02:17:42;-1.90;99.90
11577;DHT22;5844;51.496;6.788;2023-03-01T02:20:16;-1.90;99.90
11577;DHT22;5844;51.496;6.788;2023-03-01T02:22:45;-1.90;99.90
11577;DHT22;5844;51.496;6.788;2023-03-01T02:27:54;-1.90;99.90
11577;DHT22;5844;51.496;6.788;2023-03-01T02:30:22;-2.00;99.90
11577;DHT22;5844;51.496;6.788;2023-03-01T02:32:50;-2.00;99.90
11577;DHT22;5844;51.496;6.788;2023-03-01T02:35:17;-2.00;99.90
11577;DHT22;5844;51.496;6.788;2023-03-01T02:37:45;-2.00;99.90
11577;DHT22;5844;51.496;6.788;2023-03-01T02:40:16;-1.60;99.90
11577;DHT22;5844;51.496;6.788;2023-03-01T02:42:51;-2.00;99.90
11577;DHT22;5844;51.496;6.788;2023-03-01T02:45:18;-2.00;99.90
11577;DHT22;5844;51.496;6.788;2023-03-01T02:47:44;-2.00;99.90
11577;DHT22;5844;51.496;6.788;2023-03-01T02:50:55;-2.00;99.90
11577;DHT22;5844;51.496;6.788;2023-03-01T02:56:02;-2.10;99.90
11577;DHT22;5844;51.496;6.788;2023-03-01T02:58:28;-2.10;99.90
11577;DHT22;5844;51.496;6.788;2023-03-01T03:00:53;-2.10;99.90
11577;DHT22;5844;51.496;6.788;2023-03-01T03:03:20;-2.10;99.90
11577;DHT22;5844;51.496;6.788;2023-03-01T03:05:47;-2.00;99.90
11577;DHT22;5844;51.496;6.788;2023-03-01T03:08:14;-2.10;99.90
11577;DHT22;5844;51.496;6.788;2023-03-01T03:10:41;-2.10;99.90
11577;DHT22;5844;51.496;6.788;2023-03-01T03:13:17;-2.00;99.90
11577;DHT22;5844;51.496;6.788;2023-03-01T03:15:44;-2.00;99.90
11577;DHT22;5844;51.496;6.788;2023-03-01T03:18:12;-2.10;99.90
11577;DHT22;5844;51.496;6.788;2023-03-01T03:20:40;-2.10;99.90
11577;DHT22;5844;51.496;6.788;2023-03-01T03:23:06;-2.10;99.90
11577;DHT22;5844;51.496;6.788;2023-03-01T03:25:31;-2.10;99.90
11577;DHT22;5844;51.496;6.788;2023-03-01T03:27:57;-2.10;99.90
11577;DHT22;5844;51.496;6.788;2023-03-01T03:30:30;-2.10;99.90
11577;DHT22;5844;51.496;6.788;2023-03-01T03:32:57;-2.20;99.90
11577;DHT22;5844;51.496;6.788;2023-03-01T03:35:27;-2.20;99.90
11577;DHT22;5844;51.496;6.788;2023-03-01T03:37:56;-2.20;99.90
11577;DHT22;5844;51.496;6.788;2023-03-01T03:40:30;-2.20;99.90
11577;DHT22;5844;51.496;6.788;2023-03-01T03:42:56;-2.50;99.90
11577;DHT22;5844;51.496;6.788;2023-03-01T03:45:21;-2.30;99.90
11577;DHT22;5844;51.496;6.788;2023-03-01T03:47:47;-2.30;99.90
11577;DHT22;5844;51.496;6.788;2023-03-01T03:50:15;-2.30;99.90
11577;DHT22;5844;51.496;6.788;2023-03-01T03:52:41;-2.30;99.90
11577;DHT22;5844;51.496;6.788;2023-03-01T03:55:10;-2.30;99.90
11577;DHT22;5844;51.496;6.788;2023-03-01T03:57:42;-2.30;99.90
11577;DHT22;5844;51.496;6.788;2023-03-01T04:00:11;-2.30;99.90
11577;DHT22;5844;51.496;6.788;2023-03-01T04:02:41;-2.40;99.90
11577;DHT22;5844;51.496;6.788;2023-03-01T04:05:08;-2.40;99.90
11577;DHT22;5844;51.496;6.788;2023-03-01T04:07:38;-2.40;99.90
11577;DHT22;5844;51.496;6.788;2023-03-01T04:10:09;-2.40;99.90
11577;DHT22;5844;51.496;6.788;2023-03-01T04:12:36;-2.40;99.90
11577;DHT22;5844;51.496;6.788;2023-03-01T04:15:03;-2.50;99.90
11577;DHT22;5844;51.496;6.788;2023-03-01T04:17:38;-2.50;99.90
11577;DHT22;5844;51.496;6.788;2023-03-01T04:20:05;-2.50;99.90
11577;DHT22;5844;51.496;6.788;2023-03-01T04:22:31;-2.50;99.90
11577;DHT22;5844;51.496;6.788;2023-03-01T04:24:57;-2.50;99.90
11577;DHT22;5844;51.496;6.788;2023-03-01T04:27:23;-2.60;99.90
11577;DHT22;5844;51.496;6.788;2023-03-01T04:29:49;-2.50;99.90
11577;DHT22;5844;51.496;6.788;2023-03-01T04:32:14;-2.60;99.90
11577;DHT22;5844;51.496;6.788;2023-03-01T04:34:41;-2.60;99.90
11577;DHT22;5844;51.496;6.788;2023-03-01T04:37:07;-2.60;99.90
11577;DHT22;5844;51.496;6.788;2023-03-01T04:39:34;-2.60;99.90
11577;DHT22;5844;51.496;6.788;2023-03-01T04:42:11;-2.60;99.90
11577;DHT22;5844;51.496;6.788;2023-03-01T04:44:37;-2.60;99.90
11577;DHT22;5844;51.496;6.788;2023-03-01T04:47:03;-2.60;99.90
11577;DHT22;5844;51.496;6.788;2023-03-01T04:49:28;-2.60;99.90
11577;DHT22;5844;51.496;6.788;2023-03-01T04:51:54;-2.60;99.90
11577;DHT22;5844;51.496;6.788;2023-03-01T04:54:20;-2.60;99.90
11577;DHT22;5844;51.496;6.788;2023-03-01T04:56:46;-2.60;99.90
11577;DHT22;5844;51.496;6.788;2023-03-01T04:59:11;-2.60;99.90
11577;DHT22;5844;51.496;6.788;2023-03-01T05:01:38;-2.60;99.90
11577;DHT22;5844;51.496;6.788;2023-03-01T05:04:04;-2.60;99.90
11577;DHT22;5844;51.496;6.788;2023-03-01T05:06:31;-2.60;99.90
11577;DHT22;5844;51.496;6.788;2023-03-01T05:08:58;-2.60;99.90
11577;DHT22;5844;51.496;6.788;2023-03-01T05:11:23;-2.60;99.90
11577;DHT22;5844;51.496;6.788;2023-03-01T05:13:49;-2.60;99.90
11577;DHT22;5844;51.496;6.788;2023-03-01T05:16:20;-2.60;99.90
11577;DHT22;5844;51.496;6.788;2023-03-01T05:18:45;-2.60;99.90
11577;DHT22;5844;51.496;6.788;2023-03-01T05:21:13;-2.70;99.90
11577;DHT22;5844;51.496;6.788;2023-03-01T05:23:41;-2.70;99.90
11577;DHT22;5844;51.496;6.788;2023-03-01T05:26:07;-2.70;99.90
11577;DHT22;5844;51.496;6.788;2023-03-01T05:28:34;-2.70;99.90
11577;DHT22;5844;51.496;6.788;2023-03-01T05:31:00;-2.70;99.90
11577;DHT22;5844;51.496;6.788;2023-03-01T05:33:26;-2.70;99.90
11577;DHT22;5844;51.496;6.788;2023-03-01T05:35:53;-2.70;99.90
11577;DHT22;5844;51.496;6.788;2023-03-01T05:38:20;-2.70;99.90
11577;DHT22;5844;51.496;6.788;2023-03-01T05:40:47;-2.70;99.90
11577;DHT22;5844;51.496;6.788;2023-03-01T05:43:15;-2.70;99.90
11577;DHT22;5844;51.496;6.788;2023-03-01T05:45:41;-2.70;99.90
11577;DHT22;5844;51.496;6.788;2023-03-01T05:48:08;-2.70;99.90
11577;DHT22;5844;51.496;6.788;2023-03-01T05:50:40;-2.70;99.90
11577;DHT22;5844;51.496;6.788;2023-03-01T05:53:15;-2.70;99.90
11577;DHT22;5844;51.496;6.788;2023-03-01T05:55:42;-2.70;99.90
11577;DHT22;5844;51.496;6.788;2023-03-01T05:58:11;-2.60;99.90
11577;DHT22;5844;51.496;6.788;2023-03-01T06:00:37;-2.60;99.90
11577;DHT22;5844;51.496;6.788;2023-03-01T06:03:03;-2.60;99.90
11577;DHT22;5844;51.496;6.788;2023-03-01T06:05:29;-2.60;99.90
11577;DHT22;5844;51.496;6.788;2023-03-01T06:07:55;-2.60;99.90
11577;DHT22;5844;51.496;6.788;2023-03-01T06:10:22;-2.60;99.90
11577;DHT22;5844;51.496;6.788;2023-03-01T06:12:48;-2.70;99.90
11577;DHT22;5844;51.496;6.788;2023-03-01T06:15:16;-2.60;99.90
11577;DHT22;5844;51.496;6.788;2023-03-01T06:17:45;-2.70;99.90
11577;DHT22;5844;51.496;6.788;2023-03-01T06:20:17;-2.60;99.90
11577;DHT22;5844;51.496;6.788;2023-03-01T06:22:43;-2.60;99.90
11577;DHT22;5844;51.496;6.788;2023-03-01T06:25:11;-2.50;99.90
11577;DHT22;5844;51.496;6.788;2023-03-01T06:27:41;-2.60;99.90
11577;DHT22;5844;51.496;6.788;2023-03-01T06:30:10;-2.60;99.90
11577;DHT22;5844;51.496;6.788;2023-03-01T06:32:37;-2.60;99.90
11577;DHT22;5844;51.496;6.788;2023-03-01T06:35:04;-2.50;99.90
11577;DHT22;5844;51.496;6.788;2023-03-01T06:37:31;-2.50;99.90
11577;DHT22;5844;51.496;6.788;2023-03-01T06:39:56;-2.40;99.90
11577;DHT22;5844;51.496;6.788;2023-03-01T06:42:22;-2.40;99.90
11577;DHT22;5844;51.496;6.788;2023-03-01T06:44:48;-2.40;99.90
11577;DHT22;5844;51.496;6.788;2023-03-01T06:47:13;-2.40;99.90
11577;DHT22;5844;51.496;6.788;2023-03-01T06:49:39;-2.40;99.90
11577;DHT22;5844;51.496;6.788;2023-03-01T06:52:04;-2.30;99.90
11577;DHT22;5844;51.496;6.788;2023-03-01T06:54:30;-2.30;99.90
11577;DHT22;5844;51.496;6.788;2023-03-01T06:56:56;-2.20;99.90
11577;DHT22;5844;51.496;6.788;2023-03-01T06:59:21;-2.10;99.90
11577;DHT22;5844;51.496;6.788;2023-03-01T07:01:47;-2.00;99.90
11577;DHT22;5844;51.496;6.788;2023-03-01T07:04:13;-2.00;99.90
11577;DHT22;5844;51.496;6.788;2023-03-01T07:06:38;-1.90;99.90
11577;DHT22;5844;51.496;6.788;2023-03-01T07:09:04;-1.90;99.90
11577;DHT22;5844;51.496;6.788;2023-03-01T07:11:30;-1.80;99.90
11577;DHT22;5844;51.496;6.788;2023-03-01T07:13:55;-1.80;99.90
11577;DHT22;5844;51.496;6.788;2023-03-01T07:16:21;-1.70;99.90
11577;DHT22;5844;51.496;6.788;2023-03-01T07:18:47;-1.70;99.90
11577;DHT22;5844;51.496;6.788;2023-03-01T07:21:14;-1.60;99.90
11577;DHT22;5844;51.496;6.788;2023-03-01T07:23:40;-1.60;99.90
11577;DHT22;5844;51.496;6.788;2023-03-01T07:26:06;-1.50;99.90
11577;DHT22;5844;51.496;6.788;2023-03-01T07:28:31;-1.40;99.90
11577;DHT22;5844;51.496;6.788;2023-03-01T07:31:05;-1.40;99.90
11577;DHT22;5844;51.496;6.788;2023-03-01T07:33:32;-1.30;99.90
11577;DHT22;5844;51.496;6.788;2023-03-01T07:35:59;-1.20;99.90
11577;DHT22;5844;51.496;6.788;2023-03-01T07:38:26;-1.20;99.90
11577;DHT22;5844;51.496;6.788;2023-03-01T07:40:51;-1.10;99.90
11577;DHT22;5844;51.496;6.788;2023-03-01T07:43:17;-1.00;99.90
11577;DHT22;5844;51.496;6.788;2023-03-01T07:45:43;-1.00;99.90
11577;DHT22;5844;51.496;6.788;2023-03-01T07:48:08;-0.80;99.90
11577;DHT22;5844;51.496;6.788;2023-03-01T07:50:35;-0.70;99.90
11577;DHT22;5844;51.496;6.788;2023-03-01T07:53:00;-0.60;99.90
11577;DHT22;5844;51.496;6.788;2023-03-01T07:55:26;-0.50;99.90
11577;DHT22;5844;51.496;6.788;2023-03-01T07:57:52;-0.40;99.90
11577;DHT22;5844;51.496;6.788;2023-03-01T08:00:17;-0.30;99.90
11577;DHT22;5844;51.496;6.788;2023-03-01T08:02:43;-0.10;99.90
11577;DHT22;5844;51.496;6.788;2023-03-01T08:05:10;0.10;99.90
11577;DHT22;5844;51.496;6.788;2023-03-01T08:07:35;0.20;99.90
11577;DHT22;5844;51.496;6.788;2023-03-01T08:10:01;0.30;99.90
11577;DHT22;5844;51.496;6.788;2023-03-01T08:12:27;0.40;99.90
11577;DHT22;5844;51.496;6.788;2023-03-01T08:14:53;0.50;99.90
11577;DHT22;5844;51.496;6.788;2023-03-01T08:17:19;0.70;99.90
11577;DHT22;5844;51.496;6.788;2023-03-01T08:19:45;0.80;99.90
11577;DHT22;5844;51.496;6.788;2023-03-01T08:22:11;0.90;99.90
11577;DHT22;5844;51.496;6.788;2023-03-01T08:24:37;1.20;99.90
11577;DHT22;5844;51.496;6.788;2023-03-01T08:27:02;1.30;99.90
11577;DHT22;5844;51.496;6.788;2023-03-01T08:29:30;1.50;99.90
11577;DHT22;5844;51.496;6.788;2023-03-01T08:31:56;1.90;99.90
11577;DHT22;5844;51.496;6.788;2023-03-01T08:34:22;2.50;1.00
11577;DHT22;5844;51.496;6.788;2023-03-01T08:36:48;2.60;1.00
11577;DHT22;5844;51.496;6.788;2023-03-01T08:39:17;2.90;1.00
11577;DHT22;5844;51.496;6.788;2023-03-01T08:41:44;3.30;1.00
11577;DHT22;5844;51.496;6.788;2023-03-01T08:44:12;3.60;1.00
11577;DHT22;5844;51.496;6.788;2023-03-01T08:46:40;3.90;1.00
11577;DHT22;5844;51.496;6.788;2023-03-01T08:49:07;3.90;1.00
11577;DHT22;5844;51.496;6.788;2023-03-01T08:51:33;3.90;1.00
11577;DHT22;5844;51.496;6.788;2023-03-01T08:54:06;4.10;1.00
11577;DHT22;5844;51.496;6.788;2023-03-01T08:56:33;4.10;1.00
11577;DHT22;5844;51.496;6.788;2023-03-01T08:58:58;4.20;99.90
11577;DHT22;5844;51.496;6.788;2023-03-01T09:01:24;4.40;99.90
11577;DHT22;5844;51.496;6.788;2023-03-01T09:03:50;4.50;99.90
11577;DHT22;5844;51.496;6.788;2023-03-01T09:06:16;4.70;99.90
11577;DHT22;5844;51.496;6.788;2023-03-01T09:08:46;5.10;99.90
11577;DHT22;5844;51.496;6.788;2023-03-01T09:11:18;6.00;99.90
11577;DHT22;5844;51.496;6.788;2023-03-01T09:13:46;5.30;1.00
11577;DHT22;5844;51.496;6.788;2023-03-01T09:16:14;5.60;1.00
11577;DHT22;5844;51.496;6.788;2023-03-01T09:18:42;5.90;1.00
11577;DHT22;5844;51.496;6.788;2023-03-01T09:21:13;6.10;99.90
11577;DHT22;5844;51.496;6.788;2023-03-01T09:23:41;6.40;99.90
11577;DHT22;5844;51.496;6.788;2023-03-01T09:26:08;6.90;99.90
11577;DHT22;5844;51.496;6.788;2023-03-01T09:28:35;7.10;99.90
11577;DHT22;5844;51.496;6.788;2023-03-01T09:31:02;6.60;99.90
11577;DHT22;5844;51.496;6.788;2023-03-01T09:33:29;7.10;99.90
11577;DHT22;5844;51.496;6.788;2023-03-01T09:36:02;7.20;99.90
11577;DHT22;5844;51.496;6.788;2023-03-01T09:38:29;7.70;99.90
11577;DHT22;5844;51.496;6.788;2023-03-01T09:40:55;7.90;99.90
11577;DHT22;5844;51.496;6.788;2023-03-01T09:43:47;8.30;99.90
11577;DHT22;5844;51.496;6.788;2023-03-01T09:46:14;8.40;99.90
11577;DHT22;5844;51.496;6.788;2023-03-01T09:51:35;8.30;99.90
11577;DHT22;5844;51.496;6.788;2023-03-01T09:54:02;8.10;99.90
11577;DHT22;5844;51.496;6.788;2023-03-01T09:57:04;8.50;99.90
11577;DHT22;5844;51.496;6.788;2023-03-01T10:03:27;9.80;99.90
11577;DHT22;5844;51.496;6.788;2023-03-01T10:06:09;9.50;99.90
11577;DHT22;5844;51.496;6.788;2023-03-01T10:08:46;9.60;99.90
11577;DHT22;5844;51.496;6.788;2023-03-01T10:11:24;9.30;99.90
11577;DHT22;5844;51.496;6.788;2023-03-01T10:16:46;9.20;99.90
11577;DHT22;5844;51.496;6.788;2023-03-01T10:19:34;9.20;99.90
11577;DHT22;5844;51.496;6.788;2023-03-01T10:22:17;9.30;99.90
11577;DHT22;5844;51.496;6.788;2023-03-01T10:24:47;10.30;99.90
11577;DHT22;5844;51.496;6.788;2023-03-01T10:27:29;10.50;99.90
11577;DHT22;5844;51.496;6.788;2023-03-01T10:32:32;10.70;1.00
11577;DHT22;5844;51.496;6.788;2023-03-01T10:34:58;10.60;99.90
11577;DHT22;5844;51.496;6.788;2023-03-01T10:37:25;10.30;99.90
11577;DHT22;5844;51.496;6.788;2023-03-01T10:42:29;10.50;99.90
11577;DHT22;5844;51.496;6.788;2023-03-01T10:44:56;10.90;1.00
11577;DHT22;5844;51.496;6.788;2023-03-01T10:47:27;11.20;1.00
11577;DHT22;5844;51.496;6.788;2023-03-01T10:49:57;11.00;1.00
11577;DHT22;5844;51.496;6.788;2023-03-01T10:52:43;11.20;1.00
11577;DHT22;5844;51.496;6.788;2023-03-01T10:55:34;11.30;1.00
11577;DHT22;5844;51.496;6.788;2023-03-01T10:58:18;11.50;1.00
11577;DHT22;5844;51.496;6.788;2023-03-01T11:01:03;11.80;1.00
11577;DHT22;5844;51.496;6.788;2023-03-01T11:03:32;11.30;1.00
11577;DHT22;5844;51.496;6.788;2023-03-01T11:11:06;13.40;1.00
11577;DHT22;5844;51.496;6.788;2023-03-01T11:13:32;13.60;1.00
11577;DHT22;5844;51.496;6.788;2023-03-01T11:16:00;13.50;1.00
11577;DHT22;5844;51.496;6.788;2023-03-01T11:18:26;13.60;1.00
11577;DHT22;5844;51.496;6.788;2023-03-01T11:20:55;13.60;99.90
11577;DHT22;5844;51.496;6.788;2023-03-01T11:23:21;14.40;99.90
11577;DHT22;5844;51.496;6.788;2023-03-01T11:26:00;14.90;1.00
11577;DHT22;5844;51.496;6.788;2023-03-01T11:28:28;15.30;1.00
11577;DHT22;5844;51.496;6.788;2023-03-01T11:36:16;14.30;1.00
11577;DHT22;5844;51.496;6.788;2023-03-01T11:38:44;15.00;1.00
11577;DHT22;5844;51.496;6.788;2023-03-01T11:41:31;15.20;1.00
11577;DHT22;5844;51.496;6.788;2023-03-01T11:44:04;15.60;1.00
11577;DHT22;5844;51.496;6.788;2023-03-01T11:55:16;15.60;1.00
11577;DHT22;5844;51.496;6.788;2023-03-01T11:57:46;15.30;1.00
11577;DHT22;5844;51.496;6.788;2023-03-01T12:01:08;15.40;1.00
11577;DHT22;5844;51.496;6.788;2023-03-01T12:06:53;15.90;1.00
11577;DHT22;5844;51.496;6.788;2023-03-01T12:10:03;16.60;1.00
11577;DHT22;5844;51.496;6.788;2023-03-01T12:12:43;15.70;1.00
11577;DHT22;5844;51.496;6.788;2023-03-01T12:15:32;16.40;1.00
11577;DHT22;5844;51.496;6.788;2023-03-01T12:18:48;17.40;1.00
11577;DHT22;5844;51.496;6.788;2023-03-01T12:21:41;17.60;1.00
11577;DHT22;5844;51.496;6.788;2023-03-01T12:24:40;16.30;1.00
11577;DHT22;5844;51.496;6.788;2023-03-01T12:30:03;15.40;1.00
11577;DHT22;5844;51.496;6.788;2023-03-01T12:51:36;18.00;1.00
11577;DHT22;5844;51.496;6.788;2023-03-01T12:54:20;18.20;1.00
11577;DHT22;5844;51.496;6.788;2023-03-01T12:56:49;17.40;1.00
11577;DHT22;5844;51.496;6.788;2023-03-01T12:59:30;16.20;1.00
11577;DHT22;5844;51.496;6.788;2023-03-01T13:04:49;17.90;1.00
11577;DHT22;5844;51.496;6.788;2023-03-01T13:07:35;18.20;1.00
11577;DHT22;5844;51.496;6.788;2023-03-01T13:13:32;17.90;1.00
11577;DHT22;5844;51.496;6.788;2023-03-01T13:15:34;18.70;1.00
11577;DHT22;5844;51.496;6.788;2023-03-01T13:18:26;19.40;1.00
11577;DHT22;5844;51.496;6.788;2023-03-01T13:20:55;19.90;1.00
11577;DHT22;5844;51.496;6.788;2023-03-01T13:23:24;19.00;1.00
11577;DHT22;5844;51.496;6.788;2023-03-01T13:31:00;15.80;1.00
11577;DHT22;5844;51.496;6.788;2023-03-01T13:35:55;16.80;1.00
11577;DHT22;5844;51.496;6.788;2023-03-01T13:41:15;18.10;1.00
11577;DHT22;5844;51.496;6.788;2023-03-01T13:43:44;18.50;1.00
11577;DHT22;5844;51.496;6.788;2023-03-01T13:46:21;19.30;1.00
11577;DHT22;5844;51.496;6.788;2023-03-01T13:48:51;19.20;1.00
11577;DHT22;5844;51.496;6.788;2023-03-01T13:51:22;19.50;1.00
11577;DHT22;5844;51.496;6.788;2023-03-01T13:53:49;19.70;1.00
11577;DHT22;5844;51.496;6.788;2023-03-01T13:56:36;19.00;1.00
11577;DHT22;5844;51.496;6.788;2023-03-01T13:59:01;17.60;1.00
11577;DHT22;5844;51.496;6.788;2023-03-01T14:01:31;16.40;1.00
11577;DHT22;5844;51.496;6.788;2023-03-01T14:03:57;17.50;1.00
11577;DHT22;5844;51.496;6.788;2023-03-01T14:06:25;18.10;1.00
11577;DHT22;5844;51.496;6.788;2023-03-01T14:09:02;18.00;1.00
11577;DHT22;5844;51.496;6.788;2023-03-01T14:15:19;18.20;1.00
11577;DHT22;5844;51.496;6.788;2023-03-01T14:18:43;16.80;1.00
11577;DHT22;5844;51.496;6.788;2023-03-01T14:20:43;16.90;1.00
11577;DHT22;5844;51.496;6.788;2023-03-01T14:23:19;17.70;1.00
11577;DHT22;5844;51.496;6.788;2023-03-01T14:25:55;17.30;1.00
11577;DHT22;5844;51.496;6.788;2023-03-01T14:28:24;17.10;1.00
11577;DHT22;5844;51.496;6.788;2023-03-01T14:30:53;18.50;1.00
11577;DHT22;5844;51.496;6.788;2023-03-01T14:33:30;18.90;1.00
11577;DHT22;5844;51.496;6.788;2023-03-01T14:36:00;18.60;1.00
11577;DHT22;5844;51.496;6.788;2023-03-01T14:41:03;18.20;1.00
11577;DHT22;5844;51.496;6.788;2023-03-01T14:43:29;17.60;1.00
11577;DHT22;5844;51.496;6.788;2023-03-01T14:45:56;17.20;1.00
11577;DHT22;5844;51.496;6.788;2023-03-01T14:48:22;16.40;1.00
11577;DHT22;5844;51.496;6.788;2023-03-01T14:50:48;16.50;1.00
11577;DHT22;5844;51.496;6.788;2023-03-01T14:53:18;17.50;1.00
11577;DHT22;5844;51.496;6.788;2023-03-01T14:55:47;17.00;1.00
11577;DHT22;5844;51.496;6.788;2023-03-01T14:58:17;16.70;1.00
11577;DHT22;5844;51.496;6.788;2023-03-01T15:01:03;15.60;1.00
11577;DHT22;5844;51.496;6.788;2023-03-01T15:03:44;14.90;1.00
11577;DHT22;5844;51.496;6.788;2023-03-01T15:06:11;14.70;1.00
11577;DHT22;5844;51.496;6.788;2023-03-01T15:08:42;14.30;1.00
11577;DHT22;5844;51.496;6.788;2023-03-01T15:11:28;14.50;1.00
11577;DHT22;5844;51.496;6.788;2023-03-01T15:13:54;15.60;1.00
11577;DHT22;5844;51.496;6.788;2023-03-01T15:18:55;16.60;1.00
11577;DHT22;5844;51.496;6.788;2023-03-01T15:21:42;16.80;1.00
11577;DHT22;5844;51.496;6.788;2023-03-01T15:26:50;15.30;1.00
11577;DHT22;5844;51.496;6.788;2023-03-01T15:29:23;15.00;1.00
11577;DHT22;5844;51.496;6.788;2023-03-01T15:32:04;15.00;1.00
11577;DHT22;5844;51.496;6.788;2023-03-01T15:34:37;14.60;1.00
11577;DHT22;5844;51.496;6.788;2023-03-01T15:37:06;14.70;1.00
11577;DHT22;5844;51.496;6.788;2023-03-01T15:39:36;15.40;1.00
11577;DHT22;5844;51.496;6.788;2023-03-01T15:42:35;15.40;1.00
11577;DHT22;5844;51.496;6.788;2023-03-01T15:45:22;15.60;1.00
11577;DHT22;5844;51.496;6.788;2023-03-01T15:47:50;15.70;1.00
11577;DHT22;5844;51.496;6.788;2023-03-01T15:50:42;16.30;1.00
11577;DHT22;5844;51.496;6.788;2023-03-01T15:53:13;16.60;1.00
11577;DHT22;5844;51.496;6.788;2023-03-01T15:55:40;16.10;1.00
11577;DHT22;5844;51.496;6.788;2023-03-01T15:58:11;15.40;1.00
11577;DHT22;5844;51.496;6.788;2023-03-01T16:00:38;15.40;1.00
11577;DHT22;5844;51.496;6.788;2023-03-01T16:03:05;14.40;1.00
11577;DHT22;5844;51.496;6.788;2023-03-01T16:05:32;13.50;1.00
11577;DHT22;5844;51.496;6.788;2023-03-01T16:08:00;12.40;1.00
11577;DHT22;5844;51.496;6.788;2023-03-01T16:10:26;11.50;1.00
11577;DHT22;5844;51.496;6.788;2023-03-01T16:12:52;10.70;1.00
11577;DHT22;5844;51.496;6.788;2023-03-01T16:15:21;9.90;99.90
11577;DHT22;5844;51.496;6.788;2023-03-01T16:17:47;9.40;99.90
11577;DHT22;5844;51.496;6.788;2023-03-01T16:20:13;8.80;99.90
11577;DHT22;5844;51.496;6.788;2023-03-01T16:22:44;8.50;99.90
11577;DHT22;5844;51.496;6.788;2023-03-01T16:25:15;8.40;99.90
11577;DHT22;5844;51.496;6.788;2023-03-01T16:27:46;8.30;99.90
11577;DHT22;5844;51.496;6.788;2023-03-01T16:30:14;8.20;99.90
11577;DHT22;5844;51.496;6.788;2023-03-01T16:32:40;8.00;99.90
11577;DHT22;5844;51.496;6.788;2023-03-01T16:35:07;7.90;99.90
11577;DHT22;5844;51.496;6.788;2023-03-01T16:37:34;7.80;99.90
11577;DHT22;5844;51.496;6.788;2023-03-01T16:40:00;7.70;99.90
11577;DHT22;5844;51.496;6.788;2023-03-01T16:42:26;7.60;99.90
11577;DHT22;5844;51.496;6.788;2023-03-01T16:44:57;7.50;99.90
11577;DHT22;5844;51.496;6.788;2023-03-01T16:47:23;7.40;99.90
11577;DHT22;5844;51.496;6.788;2023-03-01T16:49:52;7.20;99.90
11577;DHT22;5844;51.496;6.788;2023-03-01T16:52:19;7.10;99.90
11577;DHT22;5844;51.496;6.788;2023-03-01T16:54:44;7.20;99.90
11577;DHT22;5844;51.496;6.788;2023-03-01T16:57:10;7.20;99.90
11577;DHT22;5844;51.496;6.788;2023-03-01T16:59:36;6.80;99.90
11577;DHT22;5844;51.496;6.788;2023-03-01T17:02:03;6.80;99.90
11577;DHT22;5844;51.496;6.788;2023-03-01T17:04:29;7.30;99.90
11577;DHT22;5844;51.496;6.788;2023-03-01T17:06:54;6.60;99.90
11577;DHT22;5844;51.496;6.788;2023-03-01T17:09:20;6.50;99.90
11577;DHT22;5844;51.496;6.788;2023-03-01T17:11:48;6.70;99.90
11577;DHT22;5844;51.496;6.788;2023-03-01T17:14:14;6.70;99.90
11577;DHT22;5844;51.496;6.788;2023-03-01T17:16:43;6.30;99.90
11577;DHT22;5844;51.496;6.788;2023-03-01T17:19:09;6.20;99.90
11577;DHT22;5844;51.496;6.788;2023-03-01T17:21:34;6.20;99.90
11577;DHT22;5844;51.496;6.788;2023-03-01T17:24:01;6.20;99.90
11577;DHT22;5844;51.496;6.788;2023-03-01T17:26:27;6.10;99.90
11577;DHT22;5844;51.496;6.788;2023-03-01T17:28:56;6.10;99.90
11577;DHT22;5844;51.496;6.788;2023-03-01T17:31:24;6.00;99.90
11577;DHT22;5844;51.496;6.788;2023-03-01T17:33:49;5.90;99.90
11577;DHT22;5844;51.496;6.788;2023-03-01T17:36:16;5.90;99.90
11577;DHT22;5844;51.496;6.788;2023-03-01T17:38:42;6.70;99.90
11577;DHT22;5844;51.496;6.788;2023-03-01T17:41:08;5.70;99.90
11577;DHT22;5844;51.496;6.788;2023-03-01T17:43:36;5.80;99.90